createdAt,value
2019-02-21T00:00:57.450Z,25.48
2019-02-21T00:03:02.965Z,26.52
2019-02-21T00:05:08.564Z,25.95
2019-02-21T00:07:14.047Z,25.80
2019-02-21T00:09:19.563Z,27.55
2019-02-21T00:11:25.058Z,26.77
2019-02-21T00:13:38.641Z,25.92
2019-02-21T00:15:45.001Z,25.62
2019-02-21T00:17:50.798Z,28.05
2019-02-21T00:19:56.225Z,26.82
2019-02-21T00:22:01.905Z,27.30
2019-02-21T00:24:07.306Z,28.20
2019-02-21T00:26:16.954Z,28.45
2019-02-21T00:28:23.294Z,28.17
2019-02-21T00:30:35.178Z,28.47
2019-02-21T00:32:36.593Z,31.68
2019-02-21T00:34:42.020Z,27.80
2019-02-21T00:36:47.748Z,27.13
2019-02-21T00:38:53.156Z,27.95
2019-02-21T00:40:58.653Z,27.27
2019-02-21T00:43:04.810Z,28.73
2019-02-21T00:45:10.233Z,26.48
2019-02-21T00:47:16.823Z,27.87
2019-02-21T00:49:22.429Z,26.57
2019-02-21T00:51:27.959Z,27.58
2019-02-21T00:53:33.364Z,24.90
2019-02-21T00:55:38.858Z,28.00
2019-02-21T00:57:44.322Z,23.90
2019-02-21T00:59:50.925Z,23.18
2019-02-21T01:01:56.917Z,25.80
2019-02-21T01:04:02.369Z,25.00
2019-02-21T01:06:09.483Z,27.73
2019-02-21T01:08:14.963Z,24.57
2019-02-21T01:10:20.366Z,25.05
2019-02-21T01:12:25.921Z,22.58
2019-02-21T01:14:31.326Z,23.95
2019-02-21T01:16:36.749Z,24.37
2019-02-21T01:18:42.626Z,25.88
2019-02-21T01:20:48.093Z,24.15
2019-02-21T01:22:53.597Z,23.07
2019-02-21T01:25:01.391Z,25.05
2019-02-21T01:27:06.866Z,24.55
2019-02-21T01:29:12.274Z,26.55
2019-02-21T01:31:19.098Z,26.65
2019-02-21T01:33:24.925Z,25.55
2019-02-21T01:35:31.695Z,22.73
2019-02-21T01:37:37.981Z,24.32
2019-02-21T01:39:43.445Z,25.37
2019-02-21T01:41:48.854Z,25.75
2019-02-21T01:44:00.634Z,26.35
2019-02-21T01:46:07.161Z,24.65
2019-02-21T01:48:12.585Z,24.40
2019-02-21T01:50:18.058Z,24.70
2019-02-21T01:52:23.490Z,24.20
2019-02-21T01:54:28.930Z,23.15
2019-02-21T01:56:34.338Z,23.67
2019-02-21T01:58:39.815Z,25.92
2019-02-21T02:00:46.609Z,23.45
2019-02-21T02:02:52.027Z,25.17
2019-02-21T02:04:57.525Z,24.37
2019-02-21T02:07:02.985Z,23.77
2019-02-21T02:09:11.325Z,22.67
2019-02-21T02:11:16.989Z,23.50
2019-02-21T02:13:24.827Z,24.02
2019-02-21T02:15:31.605Z,23.02
2019-02-21T02:17:38.147Z,23.00
2019-02-21T02:19:43.548Z,22.65
2019-02-21T02:21:49.157Z,22.55
2019-02-21T02:23:54.761Z,23.75
2019-02-21T02:26:00.748Z,23.07
2019-02-21T02:28:12.159Z,23.55
2019-02-21T02:30:17.933Z,22.87
2019-02-21T02:32:23.385Z,24.05
2019-02-21T02:34:30.743Z,24.67
2019-02-21T02:36:36.164Z,22.13
2019-02-21T02:38:42.183Z,24.50
2019-02-21T02:40:47.617Z,23.38
2019-02-21T02:42:53.321Z,21.48
2019-02-21T02:44:59.996Z,21.40
2019-02-21T02:47:05.481Z,21.17
2019-02-21T02:49:11.277Z,22.02
2019-02-21T02:51:16.705Z,22.07
2019-02-21T02:53:22.181Z,23.77
2019-02-21T02:55:27.623Z,23.15
2019-02-21T02:57:33.090Z,23.30
2019-02-21T02:59:41.164Z,22.52
2019-02-21T03:01:45.667Z,23.90
2019-02-21T03:03:51.145Z,23.05
2019-02-21T03:05:56.553Z,22.58
2019-02-21T03:08:02.221Z,23.10
2019-02-21T03:10:08.745Z,20.85
2019-02-21T03:12:17.358Z,24.23
2019-02-21T03:14:22.845Z,22.10
2019-02-21T03:16:28.649Z,22.48
2019-02-21T03:18:40.281Z,22.45
2019-02-21T03:20:45.709Z,23.30
2019-02-21T03:22:53.833Z,21.90
2019-02-21T03:24:59.247Z,23.87
2019-02-21T03:27:05.353Z,23.32
2019-02-21T03:29:10.827Z,23.85
2019-02-21T03:31:17.022Z,25.00
2019-02-21T03:33:23.646Z,22.55
2019-02-21T03:35:29.125Z,24.50
2019-02-21T03:37:36.142Z,24.23
2019-02-21T03:39:41.901Z,22.58
2019-02-21T03:41:48.648Z,22.55
2019-02-21T03:43:55.835Z,23.67
2019-02-21T03:46:01.275Z,23.98
2019-02-21T03:48:06.667Z,23.85
2019-02-21T03:50:12.189Z,24.30
2019-02-21T03:52:17.585Z,21.55
2019-02-21T03:54:23.081Z,25.10
2019-02-21T03:56:28.630Z,24.87
2019-02-21T03:58:35.691Z,25.40
2019-02-21T04:00:41.103Z,21.65
2019-02-21T04:02:48.069Z,24.77
2019-02-21T04:04:55.654Z,26.73
2019-02-21T04:07:01.206Z,25.23
2019-02-21T04:09:09.105Z,24.50
2019-02-21T04:11:20.298Z,25.37
2019-02-21T04:13:26.444Z,23.67
2019-02-21T04:15:31.842Z,22.80
2019-02-21T04:17:37.237Z,23.18
2019-02-21T04:19:42.639Z,24.82
2019-02-21T04:21:48.067Z,22.85
2019-02-21T04:23:53.566Z,26.73
2019-02-21T04:25:59.714Z,22.27
2019-02-21T04:28:06.085Z,24.52
2019-02-21T04:30:14.613Z,25.12
2019-02-21T04:32:20.405Z,24.70
2019-02-21T04:34:25.810Z,23.57
2019-02-21T04:36:39.329Z,23.83
2019-02-21T04:38:44.948Z,25.25
2019-02-21T04:40:50.506Z,24.95
2019-02-21T04:42:56.681Z,23.20
2019-02-21T04:45:03.727Z,24.92
2019-02-21T04:47:10.005Z,25.12
2019-02-21T04:49:15.450Z,22.70
2019-02-21T04:51:20.934Z,24.47
2019-02-21T04:53:26.850Z,23.57
2019-02-21T04:55:32.399Z,23.87
2019-02-21T04:57:38.798Z,26.10
2019-02-21T04:59:44.378Z,24.02
2019-02-21T05:01:52.989Z,23.95
2019-02-21T05:03:58.401Z,23.35
2019-02-21T05:06:03.854Z,22.82
2019-02-21T05:08:10.578Z,23.55
2019-02-21T05:10:15.976Z,24.05
2019-02-21T05:12:23.086Z,24.45
2019-02-21T05:14:28.517Z,23.87
2019-02-21T05:16:34.324Z,25.05
2019-02-21T05:18:40.079Z,26.42
2019-02-21T05:20:48.115Z,26.55
2019-02-21T05:22:53.670Z,24.98
2019-02-21T05:25:00.843Z,25.75
2019-02-21T05:27:17.550Z,22.77
2019-02-21T05:29:22.995Z,24.85
2019-02-21T05:31:36.900Z,24.30
2019-02-21T05:34:01.250Z,27.30
2019-02-21T05:36:21.915Z,26.30
2019-02-21T05:38:52.733Z,25.50
2019-02-21T05:41:09.289Z,23.87
2019-02-21T05:43:37.339Z,24.85
2019-02-21T05:46:11.215Z,25.90
2019-02-21T05:48:48.629Z,24.65
2019-02-21T05:51:06.161Z,24.92
2019-02-21T05:53:26.913Z,24.32
2019-02-21T05:55:49.786Z,24.25
2019-02-21T05:58:17.126Z,26.42
2019-02-21T06:00:33.022Z,23.22
2019-02-21T06:02:53.433Z,26.60
2019-02-21T06:05:13.693Z,26.60
2019-02-21T06:07:40.980Z,25.82
2019-02-21T06:10:08.399Z,25.27
2019-02-21T06:12:33.921Z,23.52
2019-02-21T06:15:04.361Z,22.60
2019-02-21T06:17:28.509Z,24.10
2019-02-21T06:19:48.129Z,22.85
2019-02-21T06:22:19.517Z,25.20
2019-02-21T06:24:43.131Z,24.40
2019-02-21T06:27:05.685Z,23.75
2019-02-21T06:29:22.358Z,23.00
2019-02-21T06:31:27.456Z,23.38
2019-02-21T06:33:34.539Z,23.35
2019-02-21T06:35:40.382Z,22.42
2019-02-21T06:37:47.370Z,24.35
2019-02-21T06:39:53.733Z,24.27
2019-02-21T06:42:00.261Z,23.60
2019-02-21T06:44:09.078Z,22.58
2019-02-21T06:46:14.637Z,21.45
2019-02-21T06:48:22.899Z,22.27
2019-02-21T06:50:28.384Z,22.95
2019-02-21T06:52:33.957Z,21.70
2019-02-21T06:54:39.401Z,20.80
2019-02-21T06:56:46.906Z,23.73
2019-02-21T06:58:55.045Z,21.23
2019-02-21T07:01:00.579Z,21.35
2019-02-21T07:03:15.469Z,24.25
2019-02-21T07:05:14.326Z,22.52
2019-02-21T07:07:20.289Z,21.33
2019-02-21T07:09:26.242Z,23.12
2019-02-21T07:11:32.402Z,22.85
2019-02-21T07:13:37.878Z,22.40
2019-02-21T07:15:43.533Z,22.10
2019-02-21T07:17:49.816Z,23.32
2019-02-21T07:19:57.638Z,24.25
2019-02-21T07:22:03.730Z,23.35
2019-02-21T07:24:11.794Z,23.95
2019-02-21T07:26:19.771Z,22.07
2019-02-21T07:28:27.806Z,24.43
2019-02-21T07:30:34.314Z,22.32
2019-02-21T07:32:39.830Z,21.95
2019-02-21T07:34:45.770Z,22.90
2019-02-21T07:36:51.190Z,22.55
2019-02-21T07:39:08.515Z,21.93
2019-02-21T07:41:03.817Z,22.85
2019-02-21T07:43:09.359Z,21.15
2019-02-21T07:45:15.533Z,20.85
2019-02-21T07:47:21.933Z,23.20
2019-02-21T07:49:27.951Z,24.67
2019-02-21T07:51:35.947Z,21.87
2019-02-21T07:53:42.167Z,22.45
2019-02-21T07:55:47.961Z,21.62
2019-02-21T07:57:53.569Z,22.60
2019-02-21T07:59:59.107Z,21.87
2019-02-21T08:02:04.722Z,21.62
2019-02-21T08:04:10.130Z,20.60
2019-02-21T08:06:21.134Z,19.30
2019-02-21T08:08:26.397Z,20.53
2019-02-21T08:10:33.907Z,24.40
2019-02-21T08:12:41.063Z,20.17
2019-02-21T08:14:47.423Z,21.80
2019-02-21T08:16:55.994Z,19.80
2019-02-21T08:19:00.539Z,22.37
2019-02-21T08:21:05.995Z,22.30
2019-02-21T08:23:11.379Z,22.87
2019-02-21T08:25:20.442Z,23.43
2019-02-21T08:27:25.650Z,23.03
2019-02-21T08:29:30.966Z,20.90
2019-02-21T08:31:36.258Z,23.30
2019-02-21T08:34:04.082Z,21.43
2019-02-21T08:36:08.565Z,23.63
2019-02-21T08:38:14.441Z,23.37
2019-02-21T08:40:20.579Z,22.70
2019-02-21T08:42:27.558Z,23.13
2019-02-21T08:44:35.070Z,22.43
2019-02-21T08:46:40.286Z,23.83
2019-02-21T08:48:47.735Z,22.70
2019-02-21T08:50:52.354Z,22.00
2019-02-21T08:52:57.510Z,24.20
2019-02-21T08:55:02.731Z,24.30
2019-02-21T08:57:07.844Z,23.27
2019-02-21T08:59:13.686Z,22.20
2019-02-21T09:01:19.662Z,22.40
2019-02-21T09:03:24.910Z,23.57
2019-02-21T09:05:30.258Z,23.57
2019-02-21T09:07:35.426Z,23.00
2019-02-21T09:09:40.558Z,23.60
2019-02-21T09:11:45.854Z,24.37
2019-02-21T09:13:51.072Z,24.63
2019-02-21T09:15:58.786Z,23.20
2019-02-21T09:18:03.949Z,25.13
2019-02-21T09:20:13.616Z,24.37
2019-02-21T09:22:24.636Z,24.50
2019-02-21T09:24:38.705Z,22.70
2019-02-21T09:26:39.734Z,23.60
2019-02-21T09:28:49.569Z,23.83
2019-02-21T09:30:55.133Z,23.40
2019-02-21T09:33:04.022Z,23.70
2019-02-21T09:35:12.373Z,25.80
2019-02-21T09:37:17.562Z,25.50
2019-02-21T09:39:23.683Z,23.77
2019-02-21T09:41:28.987Z,24.23
2019-02-21T09:43:34.217Z,23.47
2019-02-21T09:45:42.143Z,25.03
2019-02-21T09:47:48.841Z,23.87
2019-02-21T09:49:57.330Z,25.27
2019-02-21T09:52:04.828Z,24.23
2019-02-21T09:54:10.274Z,24.87
2019-02-21T09:56:15.458Z,24.40
2019-02-21T09:58:22.926Z,28.33
2019-02-21T10:00:28.286Z,25.50
2019-02-21T10:02:34.753Z,25.90
2019-02-21T10:04:40.151Z,24.17
2019-02-21T10:06:48.507Z,25.20
2019-02-21T10:08:53.626Z,25.77
2019-02-21T10:11:00.878Z,25.10
2019-02-21T10:13:06.137Z,24.90
2019-02-21T10:15:11.914Z,26.57
2019-02-21T10:17:17.596Z,25.80
2019-02-21T10:19:22.775Z,27.27
2019-02-21T10:21:29.803Z,27.20
2019-02-21T10:23:35.350Z,26.80
2019-02-21T10:25:44.008Z,24.70
2019-02-21T10:27:49.825Z,26.80
2019-02-21T10:29:58.199Z,25.20
2019-02-21T10:32:06.819Z,26.63
2019-02-21T10:34:12.675Z,25.87
2019-02-21T10:36:17.988Z,26.90
2019-02-21T10:38:25.143Z,28.33
2019-02-21T10:40:33.247Z,29.07
2019-02-21T10:42:37.769Z,25.80
2019-02-21T10:44:43.026Z,26.10
2019-02-21T10:46:49.168Z,24.60
2019-02-21T10:48:55.399Z,26.40
2019-02-21T10:51:01.029Z,26.20
2019-02-21T10:53:06.323Z,26.40
2019-02-21T10:55:13.520Z,25.60
2019-02-21T10:57:22.180Z,23.10
2019-02-21T10:59:28.288Z,26.07
2019-02-21T11:01:33.627Z,23.83
2019-02-21T11:03:38.891Z,24.07
2019-02-21T11:05:44.462Z,26.20
2019-02-21T11:07:51.604Z,24.87
2019-02-21T11:09:56.749Z,23.97
2019-02-21T11:12:01.893Z,25.53
2019-02-21T11:14:07.045Z,24.27
2019-02-21T11:16:12.890Z,23.73
2019-02-21T11:18:18.030Z,23.27
2019-02-21T11:20:23.766Z,26.30
2019-02-21T11:22:29.385Z,25.20
2019-02-21T11:24:34.526Z,23.47
2019-02-21T11:26:40.338Z,23.87
2019-02-21T11:28:47.281Z,24.17
2019-02-21T11:30:53.125Z,21.80
2019-02-21T11:32:58.654Z,24.03
2019-02-21T11:35:06.615Z,23.00
2019-02-21T11:37:12.066Z,24.77
2019-02-21T11:39:17.374Z,23.37
2019-02-21T11:41:24.034Z,21.57
2019-02-21T11:43:30.206Z,20.53
2019-02-21T11:45:35.357Z,22.00
2019-02-21T11:47:40.706Z,18.43
2019-02-21T11:49:46.940Z,18.03
2019-02-21T11:51:52.319Z,20.10
2019-02-21T11:53:59.868Z,20.73
2019-02-21T11:56:05.286Z,18.33
2019-02-21T11:58:10.496Z,19.10
2019-02-21T12:00:18.533Z,17.60
2019-02-21T12:02:23.663Z,19.57
2019-02-21T12:04:28.869Z,20.93
2019-02-21T12:06:34.007Z,18.67
2019-02-21T12:08:40.678Z,18.97
2019-02-21T12:10:45.887Z,19.00
2019-02-21T12:12:51.090Z,17.80
2019-02-21T12:14:56.254Z,19.40
2019-02-21T12:17:01.458Z,18.63
2019-02-21T12:19:07.549Z,16.97
2019-02-21T12:21:13.638Z,18.20
2019-02-21T12:23:21.343Z,19.77
2019-02-21T12:25:27.585Z,22.67
2019-02-21T12:27:32.898Z,22.00
2019-02-21T12:29:38.061Z,22.30
2019-02-21T12:31:50.222Z,23.33
2019-02-21T12:33:55.402Z,19.97
2019-02-21T12:36:00.949Z,22.70
2019-02-21T12:38:06.137Z,19.80
2019-02-21T12:40:16.790Z,22.10
2019-02-21T12:42:22.523Z,20.50
2019-02-21T12:44:28.276Z,21.20
2019-02-21T12:46:33.605Z,20.60
2019-02-21T12:48:39.019Z,18.77
2019-02-21T12:50:44.827Z,17.67
2019-02-21T12:52:53.174Z,18.13
2019-02-21T12:54:58.729Z,17.47
2019-02-21T12:57:03.945Z,18.03
2019-02-21T12:59:09.397Z,16.47
2019-02-21T13:01:14.593Z,14.57
2019-02-21T13:03:21.607Z,16.87
2019-02-21T13:05:27.322Z,14.23
2019-02-21T13:07:32.764Z,18.10
2019-02-21T13:09:43.665Z,15.90
2019-02-21T13:11:49.234Z,16.60
2019-02-21T13:13:54.450Z,15.10
2019-02-21T13:15:59.613Z,12.93
2019-02-21T13:18:14.985Z,16.60
2019-02-21T13:20:11.884Z,12.50
2019-02-21T13:22:18.773Z,15.73
2019-02-21T13:24:27.654Z,14.50
2019-02-21T13:26:33.867Z,14.53
2019-02-21T13:28:40.263Z,13.10
2019-02-21T13:30:52.631Z,13.20
2019-02-21T13:33:02.904Z,14.70
2019-02-21T13:35:16.023Z,15.50
2019-02-21T13:37:28.769Z,17.17
2019-02-21T13:39:28.122Z,16.73
2019-02-21T13:41:40.101Z,16.53
2019-02-21T13:43:45.581Z,16.30
2019-02-21T13:45:51.040Z,17.90
2019-02-21T13:47:56.366Z,15.20
2019-02-21T13:50:01.780Z,15.20
2019-02-21T13:52:07.665Z,14.10
2019-02-21T13:54:15.817Z,13.50
2019-02-21T13:56:21.017Z,13.90
2019-02-21T13:58:26.405Z,12.33
2019-02-21T14:00:31.722Z,12.67
2019-02-21T14:02:42.958Z,16.20
2019-02-21T14:04:48.212Z,16.10
2019-02-21T14:06:53.752Z,15.00
2019-02-21T14:08:59.042Z,14.33
2019-02-21T14:11:05.977Z,14.40
2019-02-21T14:13:11.894Z,16.40
2019-02-21T14:15:20.317Z,15.90
2019-02-21T14:17:25.457Z,16.70
2019-02-21T14:19:30.677Z,17.10
2019-02-21T14:21:35.907Z,15.97
2019-02-21T14:23:41.634Z,16.30
2019-02-21T14:25:47.509Z,15.40
2019-02-21T14:28:06.731Z,17.00
2019-02-21T14:30:14.422Z,16.83
2019-02-21T14:32:19.677Z,15.97
2019-02-21T14:34:26.458Z,16.47
2019-02-21T14:36:31.893Z,16.83
2019-02-21T14:38:37.923Z,16.00
2019-02-21T14:40:43.322Z,15.67
2019-02-21T14:42:48.731Z,15.10
2019-02-21T14:44:53.862Z,17.30
2019-02-21T14:46:59.055Z,17.23
2019-02-21T14:49:04.590Z,15.83
2019-02-21T14:51:09.739Z,14.63
2019-02-21T14:53:15.030Z,15.50
2019-02-21T14:55:20.322Z,15.13
2019-02-21T14:57:26.570Z,14.67
2019-02-21T14:59:33.542Z,13.10
2019-02-21T15:01:38.742Z,13.80
2019-02-21T15:03:43.953Z,13.13
2019-02-21T15:05:52.315Z,14.60
2019-02-21T15:07:57.515Z,14.63
2019-02-21T15:10:02.647Z,13.57
2019-02-21T15:12:07.873Z,13.80
2019-02-21T15:14:13.117Z,14.50
2019-02-21T15:16:18.317Z,13.03
2019-02-21T15:18:23.474Z,13.60
2019-02-21T15:20:36.706Z,15.10
2019-02-21T15:22:36.234Z,13.32
2019-02-21T15:24:49.736Z,14.53
2019-02-21T15:26:55.378Z,15.30
2019-02-21T15:29:04.363Z,15.03
2019-02-21T15:31:12.305Z,14.45
2019-02-21T15:33:17.741Z,14.18
2019-02-21T15:35:23.222Z,14.25
2019-02-21T15:37:30.277Z,13.90
2019-02-21T15:39:35.701Z,14.78
2019-02-21T15:41:41.214Z,13.70
2019-02-21T15:43:52.698Z,14.60
2019-02-21T15:45:58.128Z,14.40
2019-02-21T15:48:03.974Z,13.05
2019-02-21T15:50:10.931Z,14.18
2019-02-21T15:52:22.236Z,13.35
2019-02-21T15:54:24.545Z,13.45
2019-02-21T15:56:30.001Z,11.40
2019-02-21T15:58:35.429Z,14.13
2019-02-21T16:00:40.893Z,13.30
2019-02-21T16:02:46.342Z,12.28
2019-02-21T16:04:51.758Z,13.18
2019-02-21T16:06:57.347Z,11.78
2019-02-21T16:09:15.838Z,12.80
2019-02-21T16:11:11.887Z,12.60
2019-02-21T16:13:18.133Z,12.45
2019-02-21T16:15:25.402Z,13.40
2019-02-21T16:17:31.294Z,13.03
2019-02-21T16:19:37.657Z,13.00
2019-02-21T16:21:43.798Z,14.85
2019-02-21T16:23:50.090Z,13.68
2019-02-21T16:25:55.587Z,15.08
2019-02-21T16:28:04.810Z,13.58
2019-02-21T16:30:12.509Z,12.73
2019-02-21T16:32:18.182Z,14.38
2019-02-21T16:34:25.066Z,12.68
2019-02-21T16:36:31.050Z,12.20
2019-02-21T16:38:37.045Z,13.38
2019-02-21T16:40:42.609Z,12.45
2019-02-21T16:42:48.032Z,12.15
2019-02-21T16:44:55.370Z,13.45
2019-02-21T16:47:00.773Z,13.13
2019-02-21T16:49:06.490Z,14.13
2019-02-21T16:51:11.898Z,14.25
2019-02-21T16:53:17.390Z,12.70
2019-02-21T16:55:23.104Z,13.25
2019-02-21T16:57:32.027Z,12.37
2019-02-21T16:59:37.559Z,11.65
2019-02-21T17:01:43.250Z,13.60
2019-02-21T17:03:48.927Z,13.38
2019-02-21T17:05:57.354Z,12.07
2019-02-21T17:08:03.169Z,13.32
2019-02-21T17:10:10.083Z,13.95
2019-02-21T17:12:16.051Z,13.30
2019-02-21T17:14:22.484Z,11.53
2019-02-21T17:16:27.914Z,13.65
2019-02-21T17:18:34.989Z,13.10
2019-02-21T17:20:40.478Z,14.90
2019-02-21T17:22:47.853Z,14.35
2019-02-21T17:25:00.555Z,13.62
2019-02-21T17:27:06.012Z,15.50
2019-02-21T17:29:14.654Z,19.27
2019-02-21T17:31:21.075Z,27.87
2019-02-21T17:33:27.297Z,22.70
2019-02-21T17:35:32.832Z,22.70
2019-02-21T17:37:41.671Z,18.15
2019-02-21T17:39:47.645Z,15.95
2019-02-21T17:41:53.788Z,14.93
2019-02-21T17:43:59.202Z,14.18
2019-02-21T17:46:05.280Z,13.60
2019-02-21T17:48:10.814Z,13.70
2019-02-21T17:50:22.000Z,13.05
2019-02-21T17:52:29.005Z,14.05
2019-02-21T17:54:45.429Z,12.75
2019-02-21T17:56:52.689Z,12.93
2019-02-21T17:58:58.840Z,12.63
2019-02-21T18:01:05.652Z,13.13
2019-02-21T18:03:12.171Z,13.70
2019-02-21T18:05:19.942Z,14.33
2019-02-21T18:07:36.091Z,18.82
2019-02-21T18:09:49.992Z,19.70
2019-02-21T18:11:56.493Z,21.50
2019-02-21T18:14:04.235Z,18.82
2019-02-21T18:16:16.752Z,21.27
2019-02-21T18:18:22.870Z,17.15
2019-02-21T18:20:28.901Z,16.42
2019-02-21T18:22:37.873Z,17.37
2019-02-21T18:24:44.784Z,17.55
2019-02-21T18:26:51.138Z,22.05
2019-02-21T18:28:56.608Z,19.90
2019-02-21T18:31:05.201Z,23.92
2019-02-21T18:33:12.170Z,19.75
2019-02-21T18:35:18.795Z,17.02
2019-02-21T18:37:26.449Z,14.35
2019-02-21T18:39:32.118Z,9.30
2019-02-21T18:41:40.786Z,7.25
2019-02-21T18:43:46.656Z,5.92
2019-02-21T18:45:53.013Z,6.47
2019-02-21T18:47:58.815Z,7.03
2019-02-21T18:50:05.586Z,5.50
2019-02-21T18:52:12.755Z,5.30
2019-02-21T18:54:19.246Z,4.37
2019-02-21T18:56:25.381Z,6.65
2019-02-21T18:58:31.396Z,5.08
2019-02-21T19:00:39.310Z,3.50
2019-02-21T19:02:44.981Z,3.98
2019-02-21T19:04:50.686Z,3.80
2019-02-21T19:06:56.133Z,4.85
2019-02-21T19:09:02.342Z,4.62
2019-02-21T19:11:11.123Z,4.70
2019-02-21T19:13:17.202Z,4.45
2019-02-21T19:15:23.709Z,3.35
2019-02-21T19:17:30.044Z,17.55
2019-02-21T19:19:35.916Z,12.58
2019-02-21T19:21:41.485Z,10.32
2019-02-21T19:23:47.497Z,7.60
2019-02-21T19:25:53.890Z,7.20
2019-02-21T19:28:00.268Z,8.25
2019-02-21T19:30:09.429Z,5.85
2019-02-21T19:32:15.438Z,5.75
2019-02-21T19:34:21.280Z,6.28
2019-02-21T19:36:28.513Z,5.40
2019-02-21T19:38:36.843Z,4.65
2019-02-21T19:40:42.647Z,4.90
2019-02-21T19:42:49.250Z,5.05
2019-02-21T19:44:58.833Z,5.78
2019-02-21T19:47:06.021Z,6.95
2019-02-21T19:49:16.028Z,6.90
2019-02-21T19:51:23.310Z,10.43
2019-02-21T19:53:29.048Z,7.95
2019-02-21T19:55:35.160Z,4.53
2019-02-21T19:57:41.196Z,7.10
2019-02-21T19:59:47.031Z,4.03
2019-02-21T20:01:53.542Z,4.90
2019-02-21T20:03:59.475Z,5.62
2019-02-21T20:06:05.352Z,4.45
2019-02-21T20:08:21.353Z,5.60
2019-02-21T20:10:28.558Z,6.58
2019-02-21T20:12:35.432Z,7.58
2019-02-21T20:14:42.305Z,8.38
2019-02-21T20:16:52.434Z,6.67
2019-02-21T20:18:59.792Z,7.80
2019-02-21T20:21:05.630Z,7.67
2019-02-21T20:23:11.942Z,7.87
2019-02-21T20:25:20.752Z,8.40
2019-02-21T20:27:25.717Z,6.97
2019-02-21T20:29:32.441Z,8.13
2019-02-21T20:31:38.605Z,7.72
2019-02-21T20:33:50.418Z,6.45
2019-02-21T20:36:01.458Z,4.50
2019-02-21T20:38:08.220Z,5.60
2019-02-21T20:40:15.781Z,7.42
2019-02-21T20:42:21.829Z,7.97
2019-02-21T20:44:27.584Z,7.75
2019-02-21T20:46:33.811Z,8.25
2019-02-21T20:48:41.212Z,9.75
2019-02-21T20:50:56.420Z,7.08
2019-02-21T20:52:54.885Z,7.08
2019-02-21T20:55:00.524Z,5.75
2019-02-21T20:57:06.312Z,7.15
2019-02-21T20:59:12.141Z,5.53
2019-02-21T21:01:23.943Z,7.30
2019-02-21T21:03:29.354Z,6.00
2019-02-21T21:05:34.814Z,7.85
2019-02-21T21:07:48.580Z,9.53
2019-02-21T21:09:54.981Z,8.10
2019-02-21T21:12:01.260Z,7.30
2019-02-21T21:14:07.444Z,6.95
2019-02-21T21:16:13.735Z,6.85
2019-02-21T21:18:20.315Z,6.35
2019-02-21T21:20:26.289Z,7.70
2019-02-21T21:22:34.186Z,7.03
2019-02-21T21:24:39.579Z,6.15
2019-02-21T21:26:45.033Z,6.92
2019-02-21T21:28:53.229Z,6.67
2019-02-21T21:30:58.753Z,7.37
2019-02-21T21:33:04.194Z,10.32
2019-02-21T21:35:12.985Z,11.55
2019-02-21T21:37:19.239Z,11.40
2019-02-21T21:39:25.042Z,7.40
2019-02-21T21:41:32.369Z,6.97
2019-02-21T21:43:37.870Z,5.00
2019-02-21T21:45:43.368Z,7.45
2019-02-21T21:47:49.430Z,7.45
2019-02-21T21:49:56.779Z,8.10
2019-02-21T21:52:02.194Z,5.40
2019-02-21T21:54:09.750Z,7.25
2019-02-21T21:56:15.317Z,6.37
2019-02-21T21:58:20.730Z,7.87
2019-02-21T22:00:40.431Z,7.60
2019-02-21T22:02:46.218Z,6.90
2019-02-21T22:04:52.969Z,6.90
2019-02-21T22:06:58.998Z,7.35
2019-02-21T22:09:05.322Z,5.03
2019-02-21T22:11:13.951Z,5.50
2019-02-21T22:13:21.314Z,5.50
2019-02-21T22:15:26.781Z,4.53
2019-02-21T22:17:35.714Z,4.15
2019-02-21T22:19:45.740Z,4.67
2019-02-21T22:21:54.201Z,4.42
2019-02-21T22:24:01.724Z,3.80
2019-02-21T22:26:07.830Z,5.58
2019-02-21T22:28:13.805Z,5.05
2019-02-21T22:30:19.279Z,4.72
2019-02-21T22:32:26.153Z,5.05
2019-02-21T22:34:32.448Z,4.92
2019-02-21T22:36:38.073Z,5.15
2019-02-21T22:38:43.879Z,6.00
2019-02-21T22:40:49.369Z,7.17
2019-02-21T22:42:57.621Z,4.80
2019-02-21T22:45:05.854Z,4.55
2019-02-21T22:47:11.329Z,4.58
2019-02-21T22:49:20.110Z,4.33
2019-02-21T22:51:26.937Z,5.05
2019-02-21T22:53:33.424Z,4.50
2019-02-21T22:55:39.944Z,4.78
2019-02-21T22:57:47.908Z,5.97
2019-02-21T22:59:53.922Z,7.25
2019-02-21T23:02:00.551Z,8.35
2019-02-21T23:04:38.661Z,6.55
2019-02-21T23:07:10.804Z,6.55
2019-02-21T23:09:27.756Z,7.90
2019-02-21T23:11:31.665Z,7.80
2019-02-21T23:13:37.208Z,8.13
2019-02-21T23:15:44.255Z,6.70
2019-02-21T23:17:50.789Z,7.42
2019-02-21T23:19:56.957Z,7.90
2019-02-21T23:22:05.056Z,5.90
2019-02-21T23:24:10.933Z,6.60
2019-02-21T23:26:16.505Z,5.95
2019-02-21T23:28:25.738Z,5.97
2019-02-21T23:30:35.250Z,6.67
2019-02-21T23:32:41.205Z,5.90
2019-02-21T23:34:47.510Z,6.58
2019-02-21T23:36:53.162Z,5.62
2019-02-21T23:38:59.143Z,6.33
2019-02-21T23:41:05.549Z,5.72
2019-02-21T23:43:11.015Z,5.85
2019-02-21T23:45:16.425Z,7.05
2019-02-21T23:47:23.846Z,7.28
2019-02-21T23:49:29.274Z,6.75
2019-02-21T23:51:39.181Z,5.72
2019-02-21T23:53:46.460Z,6.87
2019-02-21T23:55:52.573Z,5.35
2019-02-21T23:57:58.657Z,6.80
